aviador You're here:

VNKT Decoded Metar

KATHMANDU in NEPAL
Report Time2014-10-31 08:50:00
UTC Time2014-10-31 09:39:46
Flight Rules mvfr MVFR
Wind270° at 08 kt
W.Decomp.*RWY 20: 2.7 kt HW 7.5 kt RCW
W.Rank270° ranks 4
Current wind is above 270° avg. (6.0)
Visibility6000 m
Phenomena:N/A
Clouds:Scattered 025 Hf
Scattered 250 Hf
Expected CloudBase > 3,600 ft AGL from Temp-Dew spread
CeilingNone
Temp22°C (ISA +16)
Dew Point13°C (57% RH)
AAT20.1°C
QNH1017 hPa
Density Alt6,276 ft
Elevation4,386 ft
Report Wrong Elevation
Raw Report
METAR VNKT 310850Z 27008KT 6000 SCT025 SCT250 22/13 Q1017 NOSIG=

Flight School in Barcelona

Extra information for VNKT:More info

Metar Taf Metar & Taf Last 4 Metars F.Rules Stats Wind Profile Meteogram Temp Stats Airport Information Weather charts Add Link Nearby VenuesMetar ALERT Operation Metar Decoded Social comments